createdAt,value
2017-11-04T00:02:19.250Z,82.30
2017-11-04T00:04:45.700Z,82.30
2017-11-04T00:07:11.915Z,81.90
2017-11-04T00:09:38.191Z,81.20
2017-11-04T00:12:04.391Z,80.80
2017-11-04T00:14:30.649Z,80.90
2017-11-04T00:16:58.360Z,80.50
2017-11-04T00:19:24.535Z,81.20
2017-11-04T00:21:51.619Z,81.30
2017-11-04T00:24:17.812Z,81.70
2017-11-04T00:26:44.954Z,81.50
2017-11-04T00:29:11.147Z,81.20
2017-11-04T00:31:38.845Z,81.60
2017-11-04T00:34:05.069Z,82.00
2017-11-04T00:36:32.074Z,82.40
2017-11-04T00:38:58.247Z,82.10
2017-11-04T00:41:24.461Z,81.70
2017-11-04T00:43:50.654Z,81.10
2017-11-04T00:46:17.935Z,81.30
2017-11-04T00:48:44.900Z,81.90
2017-11-04T00:53:39.051Z,82.60
2017-11-04T00:56:05.227Z,83.10
2017-11-04T00:58:32.172Z,83.70
2017-11-04T01:00:59.152Z,84.00
2017-11-04T01:03:25.315Z,83.90
2017-11-04T01:05:51.486Z,83.80
2017-11-04T01:08:17.637Z,82.20
2017-11-04T01:10:43.823Z,84.00
2017-11-04T01:13:10.056Z,84.00
2017-11-04T01:15:36.281Z,84.10
2017-11-04T01:18:02.862Z,84.20
2017-11-04T01:20:29.408Z,84.20
2017-11-04T01:22:55.560Z,84.00
2017-11-04T01:25:22.167Z,83.70
2017-11-04T01:27:48.727Z,83.40
2017-11-04T01:30:15.646Z,83.70
2017-11-04T01:32:41.880Z,83.80
2017-11-04T01:35:09.078Z,83.90
2017-11-04T01:37:35.658Z,84.00
2017-11-04T01:40:02.630Z,84.10
2017-11-04T01:42:28.840Z,84.00
2017-11-04T01:44:55.783Z,84.30
2017-11-04T01:47:22.439Z,83.70
2017-11-04T01:49:49.622Z,83.70
2017-11-04T01:52:16.553Z,83.70
2017-11-04T01:54:43.172Z,83.30
2017-11-04T01:57:09.391Z,83.10
2017-11-04T01:59:36.368Z,83.00
2017-11-04T02:02:02.594Z,83.50
2017-11-04T02:04:29.541Z,83.80
2017-11-04T02:16:35.822Z,83.00
2017-11-04T02:19:02.795Z,82.40
2017-11-04T02:21:29.072Z,82.00
2017-11-04T02:23:55.915Z,81.60
2017-11-04T02:26:23.292Z,81.20
2017-11-04T02:28:50.221Z,80.80
2017-11-04T02:31:17.142Z,80.20
2017-11-04T02:33:43.723Z,81.00
2017-11-04T02:36:09.951Z,82.00
2017-11-04T02:38:36.995Z,82.00
2017-11-04T02:41:03.174Z,82.80
2017-11-04T02:43:29.766Z,83.20
2017-11-04T02:45:55.950Z,83.10
2017-11-04T02:48:22.506Z,83.00
2017-11-04T02:50:48.698Z,83.30
2017-11-04T02:53:14.884Z,83.80
2017-11-04T02:55:42.223Z,82.90
2017-11-04T02:58:08.471Z,82.90
2017-11-04T03:00:34.643Z,82.90
2017-11-04T03:03:00.807Z,83.00
2017-11-04T03:05:27.033Z,83.40
2017-11-04T03:07:53.568Z,83.10
2017-11-04T03:10:19.762Z,83.20
2017-11-04T03:12:46.345Z,83.00
2017-11-04T03:15:12.574Z,83.10
2017-11-04T03:17:38.753Z,82.60
2017-11-04T03:20:04.941Z,83.30
2017-11-04T03:22:31.130Z,83.70
2017-11-04T03:24:57.378Z,83.10
2017-11-04T03:27:23.542Z,83.40
2017-11-04T03:29:49.782Z,83.20
2017-11-04T03:32:15.945Z,83.30
2017-11-04T03:34:42.503Z,83.50
2017-11-04T03:37:08.720Z,83.40
2017-11-04T03:39:36.455Z,83.40
2017-11-04T03:42:03.031Z,83.40
2017-11-04T03:44:29.191Z,83.50
2017-11-04T03:46:55.435Z,83.40
2017-11-04T03:49:21.610Z,84.10
2017-11-04T03:51:47.835Z,83.10
2017-11-04T03:54:14.391Z,82.90
2017-11-04T03:56:40.991Z,83.20
2017-11-04T03:59:07.926Z,83.30
2017-11-04T04:01:34.091Z,83.40
2017-11-04T04:04:00.311Z,83.50
2017-11-04T04:06:26.527Z,83.90
2017-11-04T04:08:53.112Z,83.40
2017-11-04T04:11:19.742Z,83.30
2017-11-04T04:13:45.903Z,83.60
2017-11-04T04:16:12.449Z,83.40
2017-11-04T04:18:39.124Z,83.30
2017-11-04T04:23:33.179Z,83.60
2017-11-04T04:25:59.367Z,82.60
2017-11-04T04:28:25.566Z,82.00
2017-11-04T04:30:51.732Z,81.90
2017-11-04T04:33:17.906Z,81.60
2017-11-04T04:38:11.979Z,81.90
2017-11-04T04:40:38.258Z,82.00
2017-11-04T04:43:04.532Z,81.90
2017-11-04T04:45:31.137Z,81.50
2017-11-04T04:47:57.400Z,81.40
2017-11-04T04:50:23.649Z,81.20
2017-11-04T04:52:49.817Z,81.10
2017-11-04T04:55:16.381Z,80.60
2017-11-04T04:57:42.566Z,81.50
2017-11-04T05:00:08.786Z,81.60
2017-11-04T05:02:35.343Z,80.30
2017-11-04T05:05:01.922Z,80.60
2017-11-04T05:07:28.915Z,81.50
2017-11-04T05:09:55.127Z,78.30
2017-11-04T05:12:21.303Z,80.70
2017-11-04T05:14:47.544Z,80.80
2017-11-04T05:17:14.666Z,80.50
2017-11-04T05:19:40.862Z,80.90
2017-11-04T05:22:07.826Z,80.40
2017-11-04T05:24:34.002Z,81.20
2017-11-04T05:27:00.576Z,81.20
2017-11-04T05:29:26.765Z,81.40
2017-11-04T05:31:53.337Z,81.30
2017-11-04T05:34:19.536Z,82.20
2017-11-04T05:36:46.709Z,82.20
2017-11-04T05:39:12.892Z,82.60
2017-11-04T05:41:39.066Z,83.10
2017-11-04T05:44:05.270Z,84.90
2017-11-04T05:46:33.134Z,82.50
2017-11-04T05:48:59.281Z,82.90
2017-11-04T05:51:25.454Z,83.00
2017-11-04T05:53:53.107Z,83.00
2017-11-04T05:56:19.331Z,83.40
2017-11-04T05:58:45.635Z,83.80
2017-11-04T06:01:12.575Z,83.50
2017-11-04T06:03:39.315Z,82.90
2017-11-04T06:06:05.545Z,83.50
2017-11-04T06:08:31.911Z,83.70
2017-11-04T06:10:58.573Z,83.70
2017-11-04T06:13:25.123Z,83.90
2017-11-04T06:15:51.322Z,84.20
2017-11-04T06:18:17.552Z,84.30
2017-11-04T06:20:45.001Z,84.30
2017-11-04T06:23:11.248Z,84.40
2017-11-04T06:25:38.028Z,84.20
2017-11-04T06:28:04.263Z,84.50
2017-11-04T06:30:30.906Z,84.40
2017-11-04T06:32:57.151Z,84.50
2017-11-04T06:35:23.381Z,84.60
2017-11-04T06:37:51.409Z,83.90
2017-11-04T06:40:17.615Z,84.00
2017-11-04T06:42:44.174Z,83.50
2017-11-04T06:45:10.364Z,83.60
2017-11-04T06:47:36.595Z,83.10
2017-11-04T06:50:03.201Z,82.80
2017-11-04T06:52:29.456Z,82.70
2017-11-04T06:54:55.708Z,82.70
2017-11-04T06:57:21.954Z,82.50
2017-11-04T06:59:48.164Z,82.60
2017-11-04T07:02:14.601Z,82.30
2017-11-04T07:04:41.623Z,82.20
2017-11-04T07:07:07.830Z,82.40
2017-11-04T07:19:15.706Z,82.80
2017-11-04T07:21:42.052Z,83.00
2017-11-04T07:24:08.631Z,82.70
2017-11-04T07:26:35.325Z,83.20
2017-11-04T07:29:01.661Z,84.00
2017-11-04T07:31:28.321Z,83.60
2017-11-04T07:33:54.539Z,83.30
2017-11-04T07:36:25.831Z,82.70
2017-11-04T07:38:52.556Z,82.20
2017-11-04T07:41:18.731Z,82.10
2017-11-04T07:43:44.951Z,82.30
2017-11-04T07:46:12.214Z,81.70
2017-11-04T07:48:38.790Z,81.60
2017-11-04T07:51:04.989Z,81.90
2017-11-04T07:53:31.988Z,81.60
2017-11-04T07:55:58.974Z,81.70
2017-11-04T07:58:25.222Z,81.90
2017-11-04T08:00:51.832Z,82.20
2017-11-04T08:03:18.884Z,81.90
2017-11-04T08:05:46.300Z,82.10
2017-11-04T08:08:13.306Z,81.90
2017-11-04T08:10:40.418Z,82.10
2017-11-04T08:13:07.632Z,82.10
2017-11-04T08:15:35.259Z,82.30
2017-11-04T08:18:02.110Z,82.30
2017-11-04T08:20:28.294Z,82.60
2017-11-04T08:22:55.383Z,83.50
2017-11-04T08:35:02.008Z,83.20
2017-11-04T08:37:29.127Z,83.50
2017-11-04T08:39:55.301Z,83.80
2017-11-04T08:42:22.612Z,83.50
2017-11-04T08:44:49.328Z,83.40
2017-11-04T08:47:15.991Z,83.60
2017-11-04T08:49:43.357Z,82.60
2017-11-04T08:52:17.443Z,82.40
2017-11-04T08:54:44.709Z,82.60
2017-11-04T08:57:11.294Z,82.80
2017-11-04T08:59:38.245Z,83.30
2017-11-04T09:04:34.711Z,82.60
2017-11-04T09:07:01.292Z,82.60
2017-11-04T09:09:28.990Z,83.10
2017-11-04T09:11:56.067Z,83.40
2017-11-04T09:16:52.054Z,83.50
2017-11-04T09:19:18.310Z,83.00
2017-11-04T09:21:46.856Z,82.60
2017-11-04T09:24:13.347Z,82.90
2017-11-04T09:26:41.574Z,82.00
2017-11-04T09:29:08.975Z,81.60
2017-11-04T09:31:35.488Z,82.20
2017-11-04T09:34:02.466Z,82.20
2017-11-04T09:36:30.844Z,81.70
2017-11-04T09:38:58.145Z,81.90
2017-11-04T09:41:24.469Z,82.10
2017-11-04T09:43:51.128Z,81.90
2017-11-04T09:46:18.172Z,81.80
2017-11-04T09:51:14.225Z,81.20
2017-11-04T09:53:40.531Z,81.40
2017-11-04T09:56:06.803Z,81.90
2017-11-04T09:58:33.036Z,81.90
2017-11-04T10:00:59.222Z,82.00
2017-11-04T10:03:26.235Z,81.60
2017-11-04T10:05:53.054Z,80.00
2017-11-04T10:08:19.283Z,79.90
2017-11-04T10:10:45.621Z,79.80
2017-11-04T10:13:12.118Z,79.60
2017-11-04T10:15:39.686Z,79.90
2017-11-04T10:23:08.814Z,81.90
2017-11-04T10:25:35.533Z,81.80
2017-11-04T10:28:01.879Z,81.90
2017-11-04T10:30:29.444Z,81.90
2017-11-04T10:32:57.234Z,82.10
2017-11-04T10:35:23.497Z,82.70
2017-11-04T10:37:51.266Z,81.90
2017-11-04T10:40:18.926Z,82.50
2017-11-04T10:42:45.493Z,82.50
2017-11-04T10:45:12.377Z,82.00
2017-11-04T10:50:06.779Z,81.00
2017-11-04T10:52:32.944Z,81.00
2017-11-04T10:54:59.285Z,80.00
2017-11-04T10:57:26.640Z,79.90
2017-11-04T10:59:53.607Z,79.90
2017-11-04T11:02:19.858Z,80.20
2017-11-04T11:04:46.092Z,81.10
2017-11-04T11:16:53.021Z,80.50
2017-11-04T11:19:19.289Z,80.30
2017-11-04T11:21:46.476Z,80.20
2017-11-04T11:26:41.066Z,80.00
2017-11-04T11:29:07.290Z,79.30
2017-11-04T11:31:34.828Z,78.70
2017-11-04T11:36:29.265Z,78.30
2017-11-04T11:41:24.860Z,78.70
2017-11-04T11:46:19.332Z,78.60
2017-11-04T11:48:45.588Z,78.60
2017-11-04T11:51:12.431Z,78.30
2017-11-04T11:53:38.842Z,78.70
2017-11-04T11:56:05.310Z,78.80
2017-11-04T11:58:31.549Z,78.80
2017-11-04T12:00:58.914Z,78.10
2017-11-04T12:03:26.522Z,78.00
2017-11-04T12:05:53.860Z,77.90
2017-11-04T12:08:22.151Z,78.10
2017-11-04T12:10:48.421Z,78.30
2017-11-04T12:13:15.628Z,78.50
2017-11-04T12:15:42.992Z,78.70
2017-11-04T12:18:10.479Z,78.00
2017-11-04T12:20:37.435Z,77.40
2017-11-04T12:23:04.152Z,76.30
2017-11-04T12:25:30.465Z,76.50
2017-11-04T12:27:56.879Z,75.10
2017-11-04T12:30:23.172Z,75.30
2017-11-04T12:35:19.178Z,75.20
2017-11-04T12:37:45.886Z,75.40
2017-11-04T12:40:12.093Z,75.10
2017-11-04T12:42:38.307Z,75.40
2017-11-04T12:45:04.826Z,75.40
2017-11-04T12:47:31.064Z,76.50
2017-11-04T12:49:57.257Z,77.00
2017-11-04T12:52:24.200Z,77.40
2017-11-04T12:54:50.437Z,77.80
2017-11-04T12:57:16.611Z,77.50
2017-11-04T12:59:42.846Z,76.80
2017-11-04T13:02:09.418Z,75.40
2017-11-04T13:04:35.635Z,75.30
2017-11-04T13:07:02.002Z,75.20
2017-11-04T13:09:28.291Z,75.90
2017-11-04T13:11:54.524Z,76.30
2017-11-04T13:14:20.786Z,76.80
2017-11-04T13:16:47.807Z,76.60
2017-11-04T13:19:14.432Z,77.10
2017-11-04T13:21:41.234Z,77.00
2017-11-04T13:24:07.510Z,77.80
2017-11-04T13:26:33.794Z,77.80
2017-11-04T13:29:00.376Z,77.80
2017-11-04T13:31:26.688Z,77.30
2017-11-04T13:33:53.131Z,78.10
2017-11-04T13:36:19.378Z,76.50
2017-11-04T13:38:46.190Z,76.60
2017-11-04T13:41:12.382Z,77.20
2017-11-04T13:43:40.234Z,77.20
2017-11-04T13:46:06.869Z,76.80
2017-11-04T13:48:33.799Z,76.80
2017-11-04T13:51:01.179Z,77.60
2017-11-04T13:53:28.801Z,77.40
2017-11-04T14:05:35.945Z,77.60
2017-11-04T14:10:42.166Z,77.40
2017-11-04T14:13:10.001Z,77.20
2017-11-04T14:15:37.362Z,78.00
2017-11-04T14:18:03.611Z,78.50
2017-11-04T14:20:32.769Z,78.20
2017-11-04T14:23:02.529Z,78.00
2017-11-04T14:28:07.504Z,78.30
2017-11-04T14:30:33.834Z,78.70
2017-11-04T14:33:00.882Z,78.60
2017-11-04T14:35:27.083Z,78.60
2017-11-04T14:37:53.298Z,78.60
2017-11-04T14:40:19.486Z,78.10
2017-11-04T14:42:46.235Z,78.10
2017-11-04T14:45:12.451Z,77.50
2017-11-04T14:47:38.637Z,77.00
2017-11-04T14:50:06.135Z,75.70
2017-11-04T14:52:32.766Z,75.70
2017-11-04T14:54:58.991Z,75.80
2017-11-04T14:57:25.275Z,75.60
2017-11-04T14:59:52.889Z,75.80
2017-11-04T15:04:47.362Z,76.90
2017-11-04T15:07:13.775Z,77.50
2017-11-04T15:09:40.923Z,77.20
2017-11-04T15:12:08.229Z,77.50
2017-11-04T15:14:34.409Z,78.80
2017-11-04T15:17:02.939Z,79.00
2017-11-04T15:19:33.652Z,79.10
2017-11-04T15:21:59.923Z,79.30
2017-11-04T15:24:28.119Z,78.80
2017-11-04T15:26:54.507Z,79.30
2017-11-04T15:29:21.067Z,79.90
2017-11-04T15:31:48.021Z,79.70
2017-11-04T15:34:14.632Z,80.40
2017-11-04T15:36:41.580Z,79.70
2017-11-04T15:39:08.050Z,80.50
2017-11-04T15:41:35.406Z,80.80
2017-11-04T15:44:01.982Z,80.20
2017-11-04T15:46:28.223Z,79.60
2017-11-04T15:48:54.934Z,81.10
2017-11-04T15:51:21.562Z,81.40
2017-11-04T15:53:48.828Z,81.80
2017-11-04T15:56:16.197Z,81.40
2017-11-04T15:58:48.139Z,82.10
2017-11-04T16:01:15.551Z,82.10
2017-11-04T16:03:41.874Z,82.20
2017-11-04T16:06:09.133Z,82.20
2017-11-04T16:08:36.371Z,82.20
2017-11-04T16:11:03.121Z,82.10
2017-11-04T16:13:30.600Z,82.10
2017-11-04T16:15:56.858Z,82.50
2017-11-04T16:18:24.467Z,82.90
2017-11-04T16:20:50.693Z,83.40
2017-11-04T16:23:20.298Z,83.20
2017-11-04T16:25:46.670Z,84.10
2017-11-04T16:28:14.326Z,83.80
2017-11-04T16:30:41.613Z,83.20
2017-11-04T16:33:10.187Z,83.60
2017-11-04T16:35:37.366Z,83.60
2017-11-04T16:38:03.611Z,84.60
2017-11-04T16:40:31.500Z,83.90
2017-11-04T16:42:59.374Z,84.10
2017-11-04T16:45:25.623Z,84.70
2017-11-04T16:47:51.953Z,84.30
2017-11-04T16:50:19.106Z,84.70
2017-11-04T16:52:45.564Z,83.90
2017-11-04T16:55:12.220Z,84.90
2017-11-04T16:57:38.461Z,84.70
2017-11-04T17:02:33.984Z,84.70
2017-11-04T17:05:02.060Z,85.00
2017-11-04T17:07:29.753Z,84.60
2017-11-04T17:09:56.367Z,85.20
2017-11-04T17:14:53.384Z,84.40
2017-11-04T17:19:50.507Z,84.40
2017-11-04T17:22:16.730Z,84.90
2017-11-04T17:24:44.516Z,84.80
2017-11-04T17:27:10.769Z,85.10
2017-11-04T17:29:36.997Z,85.20
2017-11-04T17:32:03.523Z,85.30
2017-11-04T17:36:59.581Z,85.10
2017-11-04T17:39:26.027Z,85.20
2017-11-04T17:44:21.346Z,85.60
2017-11-04T17:46:47.599Z,85.80
2017-11-04T17:51:44.094Z,85.20
2017-11-04T17:54:13.081Z,85.70
2017-11-04T17:56:39.406Z,85.60
2017-11-04T17:59:05.614Z,85.90
2017-11-04T18:01:32.729Z,86.50
2017-11-04T18:03:59.062Z,87.60
2017-11-04T18:06:26.391Z,87.10
2017-11-04T18:08:53.369Z,88.30
2017-11-04T18:11:20.757Z,88.00
2017-11-04T18:13:47.001Z,88.30
2017-11-04T18:16:13.217Z,88.40
2017-11-04T18:18:39.385Z,88.00
2017-11-04T18:21:05.634Z,88.80
2017-11-04T18:23:31.820Z,88.30
2017-11-04T18:25:58.009Z,88.50
2017-11-04T18:28:24.571Z,88.10
2017-11-04T18:30:50.753Z,89.50
2017-11-04T18:33:16.987Z,88.70
2017-11-04T18:35:43.963Z,88.50
2017-11-04T18:38:10.230Z,89.00
2017-11-04T18:40:36.763Z,89.10
2017-11-04T18:43:03.042Z,88.50
2017-11-04T18:45:29.252Z,88.70
2017-11-04T18:47:56.572Z,88.30
2017-11-04T18:50:23.250Z,88.40
2017-11-04T18:52:49.861Z,88.10
2017-11-04T18:55:17.381Z,88.20
2017-11-04T18:57:43.574Z,88.60
2017-11-04T19:00:09.831Z,88.30
2017-11-04T19:02:36.011Z,88.00
2017-11-04T19:05:02.679Z,88.20
2017-11-04T19:07:28.904Z,88.10
2017-11-04T19:12:23.113Z,88.70
2017-11-04T19:14:49.404Z,88.90
2017-11-04T19:17:16.380Z,88.80
2017-11-04T19:19:43.759Z,88.40
2017-11-04T19:22:09.983Z,88.70
2017-11-04T19:24:36.623Z,88.90
2017-11-04T19:27:03.653Z,88.80
2017-11-04T19:29:29.834Z,89.00
2017-11-04T19:31:56.292Z,89.10
2017-11-04T19:34:23.170Z,88.70
2017-11-04T19:36:49.702Z,88.80
2017-11-04T19:39:16.026Z,89.40
2017-11-04T19:41:42.256Z,89.60
2017-11-04T19:44:09.054Z,89.00
2017-11-04T19:46:35.309Z,89.30
2017-11-04T19:49:02.469Z,89.30
2017-11-04T19:51:29.443Z,90.00
2017-11-04T19:53:55.677Z,89.30
2017-11-04T19:56:21.932Z,89.10
2017-11-04T19:58:48.320Z,88.70
2017-11-04T20:01:14.532Z,89.00
2017-11-04T20:03:41.478Z,88.40
2017-11-04T20:06:07.920Z,88.40
2017-11-04T20:08:34.167Z,88.60
2017-11-04T20:11:00.394Z,88.60
2017-11-04T20:13:27.496Z,88.60
2017-11-04T20:15:54.814Z,89.20
2017-11-04T20:18:21.039Z,88.80
2017-11-04T20:20:47.365Z,89.00
2017-11-04T20:23:13.541Z,89.40
2017-11-04T20:25:40.843Z,89.40
2017-11-04T20:28:07.588Z,89.30
2017-11-04T20:30:35.175Z,89.30
2017-11-04T20:33:02.082Z,89.30
2017-11-04T20:35:28.339Z,89.40
2017-11-04T20:37:55.314Z,90.10
2017-11-04T20:40:22.179Z,90.00
2017-11-04T20:42:48.391Z,90.10
2017-11-04T20:45:16.012Z,89.50
2017-11-04T20:47:42.974Z,89.90
2017-11-04T20:50:09.525Z,89.70
2017-11-04T20:52:36.127Z,89.70
2017-11-04T20:55:03.033Z,90.10
2017-11-04T20:57:29.278Z,90.30
2017-11-04T20:59:55.511Z,90.50
2017-11-04T21:02:22.209Z,90.40
2017-11-04T21:04:49.182Z,90.20
2017-11-04T21:09:43.708Z,90.10
2017-11-04T21:12:09.966Z,90.20
2017-11-04T21:14:36.303Z,90.00
2017-11-04T21:17:03.298Z,90.10
2017-11-04T21:19:29.616Z,90.10
2017-11-04T21:21:56.164Z,89.80
2017-11-04T21:24:22.741Z,89.60
2017-11-04T21:26:49.163Z,90.00
2017-11-04T21:29:15.541Z,89.70
2017-11-04T21:31:41.758Z,89.70
2017-11-04T21:34:08.045Z,89.30
2017-11-04T21:36:34.789Z,89.30
2017-11-04T21:39:01.972Z,89.20
2017-11-04T21:41:28.186Z,90.00
2017-11-04T21:43:54.575Z,90.00
2017-11-04T21:46:21.411Z,89.20
2017-11-04T21:48:48.042Z,89.10
2017-11-04T21:51:14.348Z,89.70
2017-11-04T21:53:41.666Z,90.10
2017-11-04T21:56:08.292Z,89.30
2017-11-04T21:58:34.709Z,89.80
2017-11-04T22:01:02.179Z,89.80
2017-11-04T22:03:28.419Z,90.10
2017-11-04T22:08:23.137Z,90.30
2017-11-04T22:10:49.370Z,90.20
2017-11-04T22:13:15.627Z,90.20
2017-11-04T22:15:44.105Z,90.10
2017-11-04T22:18:10.458Z,90.20
2017-11-04T22:20:36.780Z,90.20
2017-11-04T22:23:03.857Z,90.30
2017-11-04T22:25:30.909Z,90.40
2017-11-04T22:27:57.890Z,90.40
2017-11-04T22:30:25.273Z,90.30
2017-11-04T22:32:51.529Z,90.20
2017-11-04T22:35:17.742Z,90.10
2017-11-04T22:37:44.306Z,89.80
2017-11-04T22:40:10.524Z,89.70
2017-11-04T22:42:37.088Z,89.00
2017-11-04T22:45:04.088Z,89.00
2017-11-04T22:47:31.142Z,89.10
2017-11-04T22:49:58.172Z,89.40
2017-11-04T22:52:24.426Z,89.40
2017-11-04T22:54:51.403Z,89.00
2017-11-04T22:57:18.734Z,88.80
2017-11-04T22:59:44.923Z,89.50
2017-11-04T23:02:11.153Z,90.00
2017-11-04T23:04:37.448Z,90.10
2017-11-04T23:07:04.498Z,89.30
2017-11-04T23:09:30.730Z,89.50
2017-11-04T23:11:57.312Z,89.30
2017-11-04T23:14:23.791Z,89.40
2017-11-04T23:16:50.040Z,89.50
2017-11-04T23:19:16.286Z,89.10
2017-11-04T23:21:42.535Z,89.10
2017-11-04T23:24:09.190Z,89.00
2017-11-04T23:26:35.404Z,89.00
2017-11-04T23:29:01.942Z,88.80
2017-11-04T23:31:28.158Z,88.90
2017-11-04T23:33:55.118Z,88.80
2017-11-04T23:36:21.328Z,88.80
2017-11-04T23:38:48.658Z,89.40
2017-11-04T23:41:14.875Z,90.00
2017-11-04T23:43:41.870Z,90.30
2017-11-04T23:46:09.232Z,90.00
2017-11-04T23:48:35.500Z,90.20
2017-11-04T23:51:02.442Z,90.20
2017-11-04T23:53:28.626Z,90.40
2017-11-04T23:55:54.921Z,90.30
2017-11-04T23:58:22.814Z,90.00
